South Dennis, New Jersey
Current Conditions -  °F | °C
As of 10:55 PM on Saturday 22 Nov 2014 (Local Time) from KWWD Reporting Station
Scattered Clouds Scattered Clouds  
Wind Chill: 37°   Ceiling: Unl
Heat Index: 43°   Visibility: 10mi
Dew Point: 25°   Wind: 12mph
Humidity: 49%   Direction: 220°SW
Pressure: 30.29"   Gusts: NA
Location:  39.18°N, 74.82°W
Report Text: KWWD 230355Z AUTO 22010KT 10SM SCT120 06/M04 A3029 RMK AO1
Loading
Personal Weather Stations






























Interactive Weather Map New forecast layout! Learn more

10-Day Weather Forecast

Advertisements
Track Severe Weather on mobile